<?xml version="1.0" encoding="UTF-8" standalone="no" ?>
<gpx xmlns="http://www.topografix.com/GPX/1/1" xmlns:xsi="http://www.w3.org/2001/XMLSchema-instance" xsi:schemaLocation="http://www.topografix.com/GPX/1/1 http://www.topografix.com/GPX/1/1/gpx.xsd" version="1.1" creator="VisuGPX - https://www.visugpx.com">
  <metadata>
    <name>64 - VTT - Abos</name>
    <desc><![CDATA[1ère côtes suite opération]]></desc>
  </metadata>
  <trk>
    <name><![CDATA[ACTIVE LOG 001]]></name>
    <trkseg>
      <trkpt lat="43.3581" lon="-0.56448">
        <ele>111.650269</ele>
        <time>2013-08-27T08:16:30Z</time>
      </trkpt>
      <trkpt lat="43.3581" lon="-0.56448">
        <ele>111.650269</ele>
        <time>2013-08-27T08:16:31Z</time>
      </trkpt>
      <trkpt lat="43.35813" lon="-0.56446">
        <ele>114.053589</ele>
        <time>2013-08-27T08:16:54Z</time>
      </trkpt>
      <trkpt lat="43.35812" lon="-0.56443">
        <ele>115.014893</ele>
        <time>2013-08-27T08:17:18Z</time>
      </trkpt>
      <trkpt lat="43.3581" lon="-0.56445">
        <ele>115.014893</ele>
        <time>2013-08-27T08:18:20Z</time>
      </trkpt>
      <trkpt lat="43.3581" lon="-0.56447">
        <ele>115.495605</ele>
        <time>2013-08-27T08:18:25Z</time>
      </trkpt>
      <trkpt lat="43.35813" lon="-0.56453">
        <ele>115.976196</ele>
        <time>2013-08-27T08:18:29Z</time>
      </trkpt>
      <trkpt lat="43.35818" lon="-0.565">
        <ele>115.976196</ele>
        <time>2013-08-27T08:18:41Z</time>
      </trkpt>
      <trkpt lat="43.3579" lon="-0.56517">
        <ele>115.014893</ele>
        <time>2013-08-27T08:18:49Z</time>
      </trkpt>
      <trkpt lat="43.3575" lon="-0.56535">
        <ele>115.495605</ele>
        <time>2013-08-27T08:18:58Z</time>
      </trkpt>
      <trkpt lat="43.35707" lon="-0.56557">
        <ele>114.53418</ele>
        <time>2013-08-27T08:19:08Z</time>
      </trkpt>
      <trkpt lat="43.35698" lon="-0.56542">
        <ele>114.53418</ele>
        <time>2013-08-27T08:19:12Z</time>
      </trkpt>
      <trkpt lat="43.35683" lon="-0.56463">
        <ele>115.014893</ele>
        <time>2013-08-27T08:19:25Z</time>
      </trkpt>
      <trkpt lat="43.35679" lon="-0.56432">
        <ele>115.495605</ele>
        <time>2013-08-27T08:19:30Z</time>
      </trkpt>
      <trkpt lat="43.35678" lon="-0.56408">
        <ele>115.014893</ele>
        <time>2013-08-27T08:19:34Z</time>
      </trkpt>
      <trkpt lat="43.35658" lon="-0.56391">
        <ele>115.976196</ele>
        <time>2013-08-27T08:19:41Z</time>
      </trkpt>
      <trkpt lat="43.35561" lon="-0.56442">
        <ele>115.495605</ele>
        <time>2013-08-27T08:20:01Z</time>
      </trkpt>
      <trkpt lat="43.35439" lon="-0.56485">
        <ele>115.976196</ele>
        <time>2013-08-27T08:20:24Z</time>
      </trkpt>
      <trkpt lat="43.35309" lon="-0.56482">
        <ele>116.456787</ele>
        <time>2013-08-27T08:20:49Z</time>
      </trkpt>
      <trkpt lat="43.35202" lon="-0.56473">
        <ele>116.9375</ele>
        <time>2013-08-27T08:21:10Z</time>
      </trkpt>
      <trkpt lat="43.35104" lon="-0.56448">
        <ele>118.379395</ele>
        <time>2013-08-27T08:21:30Z</time>
      </trkpt>
      <trkpt lat="43.35093" lon="-0.56447">
        <ele>117.898804</ele>
        <time>2013-08-27T08:21:32Z</time>
      </trkpt>
      <trkpt lat="43.35021" lon="-0.56471">
        <ele>116.9375</ele>
        <time>2013-08-27T08:21:45Z</time>
      </trkpt>
      <trkpt lat="43.34987" lon="-0.56455">
        <ele>116.9375</ele>
        <time>2013-08-27T08:21:52Z</time>
      </trkpt>
      <trkpt lat="43.34958" lon="-0.56412">
        <ele>117.418213</ele>
        <time>2013-08-27T08:22:00Z</time>
      </trkpt>
      <trkpt lat="43.34939" lon="-0.56397">
        <ele>117.418213</ele>
        <time>2013-08-27T08:22:04Z</time>
      </trkpt>
      <trkpt lat="43.34882" lon="-0.56345">
        <ele>117.418213</ele>
        <time>2013-08-27T08:22:17Z</time>
      </trkpt>
      <trkpt lat="43.34811" lon="-0.56303">
        <ele>118.379395</ele>
        <time>2013-08-27T08:22:32Z</time>
      </trkpt>
      <trkpt lat="43.347" lon="-0.56293">
        <ele>117.418213</ele>
        <time>2013-08-27T08:22:53Z</time>
      </trkpt>
      <trkpt lat="43.34616" lon="-0.56268">
        <ele>117.898804</ele>
        <time>2013-08-27T08:23:09Z</time>
      </trkpt>
      <trkpt lat="43.34605" lon="-0.56265">
        <ele>117.418213</ele>
        <time>2013-08-27T08:23:11Z</time>
      </trkpt>
      <trkpt lat="43.34533" lon="-0.56289">
        <ele>118.860107</ele>
        <time>2013-08-27T08:23:26Z</time>
      </trkpt>
      <trkpt lat="43.34502" lon="-0.56285">
        <ele>119.34082</ele>
        <time>2013-08-27T08:23:33Z</time>
      </trkpt>
      <trkpt lat="43.34451" lon="-0.56231">
        <ele>123.666748</ele>
        <time>2013-08-27T08:23:48Z</time>
      </trkpt>
      <trkpt lat="43.34407" lon="-0.56188">
        <ele>126.550659</ele>
        <time>2013-08-27T08:24:03Z</time>
      </trkpt>
      <trkpt lat="43.34356" lon="-0.56135">
        <ele>126.550659</ele>
        <time>2013-08-27T08:24:18Z</time>
      </trkpt>
      <trkpt lat="43.34339" lon="-0.56097">
        <ele>124.628052</ele>
        <time>2013-08-27T08:24:23Z</time>
      </trkpt>
      <trkpt lat="43.3432" lon="-0.56043">
        <ele>123.666748</ele>
        <time>2013-08-27T08:24:29Z</time>
      </trkpt>
      <trkpt lat="43.34269" lon="-0.55962">
        <ele>123.666748</ele>
        <time>2013-08-27T08:24:42Z</time>
      </trkpt>
      <trkpt lat="43.34196" lon="-0.5585">
        <ele>123.666748</ele>
        <time>2013-08-27T08:25:02Z</time>
      </trkpt>
      <trkpt lat="43.34114" lon="-0.55796">
        <ele>124.628052</ele>
        <time>2013-08-27T08:25:19Z</time>
      </trkpt>
      <trkpt lat="43.34083" lon="-0.55785">
        <ele>127.511963</ele>
        <time>2013-08-27T08:25:28Z</time>
      </trkpt>
      <trkpt lat="43.34051" lon="-0.55773">
        <ele>130.876709</ele>
        <time>2013-08-27T08:25:38Z</time>
      </trkpt>
      <trkpt lat="43.34012" lon="-0.55757">
        <ele>133.760498</ele>
        <time>2013-08-27T08:25:51Z</time>
      </trkpt>
      <trkpt lat="43.33957" lon="-0.55722">
        <ele>136.16394</ele>
        <time>2013-08-27T08:26:09Z</time>
      </trkpt>
      <trkpt lat="43.33893" lon="-0.55679">
        <ele>135.683105</ele>
        <time>2013-08-27T08:26:27Z</time>
      </trkpt>
      <trkpt lat="43.33839" lon="-0.55658">
        <ele>132.799316</ele>
        <time>2013-08-27T08:26:35Z</time>
      </trkpt>
      <trkpt lat="43.33772" lon="-0.55608">
        <ele>136.644653</ele>
        <time>2013-08-27T08:26:49Z</time>
      </trkpt>
      <trkpt lat="43.3371" lon="-0.55552">
        <ele>133.760498</ele>
        <time>2013-08-27T08:27:02Z</time>
      </trkpt>
      <trkpt lat="43.33662" lon="-0.5546">
        <ele>133.279907</ele>
        <time>2013-08-27T08:27:14Z</time>
      </trkpt>
      <trkpt lat="43.33654" lon="-0.55445">
        <ele>132.318604</ele>
        <time>2013-08-27T08:27:16Z</time>
      </trkpt>
      <trkpt lat="43.3365" lon="-0.55389">
        <ele>131.3573</ele>
        <time>2013-08-27T08:27:22Z</time>
      </trkpt>
      <trkpt lat="43.33658" lon="-0.5537">
        <ele>130.395996</ele>
        <time>2013-08-27T08:27:24Z</time>
      </trkpt>
      <trkpt lat="43.33663" lon="-0.55302">
        <ele>127.992554</ele>
        <time>2013-08-27T08:27:31Z</time>
      </trkpt>
      <trkpt lat="43.33648" lon="-0.55275">
        <ele>127.031372</ele>
        <time>2013-08-27T08:27:34Z</time>
      </trkpt>
      <trkpt lat="43.33555" lon="-0.55144">
        <ele>127.511963</ele>
        <time>2013-08-27T08:27:53Z</time>
      </trkpt>
      <trkpt lat="43.33486" lon="-0.55055">
        <ele>127.511963</ele>
        <time>2013-08-27T08:28:08Z</time>
      </trkpt>
      <trkpt lat="43.33431" lon="-0.54971">
        <ele>129.434692</ele>
        <time>2013-08-27T08:28:21Z</time>
      </trkpt>
      <trkpt lat="43.33358" lon="-0.549">
        <ele>131.3573</ele>
        <time>2013-08-27T08:28:40Z</time>
      </trkpt>
      <trkpt lat="43.33267" lon="-0.54847">
        <ele>131.3573</ele>
        <time>2013-08-27T08:28:58Z</time>
      </trkpt>
      <trkpt lat="43.3319" lon="-0.5479">
        <ele>131.837891</ele>
        <time>2013-08-27T08:29:15Z</time>
      </trkpt>
      <trkpt lat="43.33109" lon="-0.54725">
        <ele>130.395996</ele>
        <time>2013-08-27T08:29:29Z</time>
      </trkpt>
      <trkpt lat="43.33081" lon="-0.54654">
        <ele>130.876709</ele>
        <time>2013-08-27T08:29:38Z</time>
      </trkpt>
      <trkpt lat="43.33068" lon="-0.5463">
        <ele>131.837891</ele>
        <time>2013-08-27T08:29:43Z</time>
      </trkpt>
      <trkpt lat="43.33046" lon="-0.54615">
        <ele>135.683105</ele>
        <time>2013-08-27T08:29:52Z</time>
      </trkpt>
      <trkpt lat="43.33038" lon="-0.5461">
        <ele>137.125244</ele>
        <time>2013-08-27T08:29:55Z</time>
      </trkpt>
      <trkpt lat="43.32982" lon="-0.54571">
        <ele>138.086548</ele>
        <time>2013-08-27T08:30:14Z</time>
      </trkpt>
      <trkpt lat="43.32943" lon="-0.54531">
        <ele>138.086548</ele>
        <time>2013-08-27T08:30:23Z</time>
      </trkpt>
      <trkpt lat="43.32905" lon="-0.5452">
        <ele>139.047852</ele>
        <time>2013-08-27T08:30:31Z</time>
      </trkpt>
      <trkpt lat="43.32848" lon="-0.54538">
        <ele>142.893066</ele>
        <time>2013-08-27T08:30:47Z</time>
      </trkpt>
      <trkpt lat="43.32845" lon="-0.5454">
        <ele>143.373657</ele>
        <time>2013-08-27T08:30:48Z</time>
      </trkpt>
      <trkpt lat="43.32812" lon="-0.54554">
        <ele>144.335205</ele>
        <time>2013-08-27T08:31:00Z</time>
      </trkpt>
      <trkpt lat="43.32763" lon="-0.54514">
        <ele>143.373657</ele>
        <time>2013-08-27T08:31:12Z</time>
      </trkpt>
      <trkpt lat="43.32659" lon="-0.54481">
        <ele>142.412476</ele>
        <time>2013-08-27T08:31:32Z</time>
      </trkpt>
      <trkpt lat="43.32623" lon="-0.54468">
        <ele>142.893066</ele>
        <time>2013-08-27T08:31:40Z</time>
      </trkpt>
      <trkpt lat="43.32618" lon="-0.5445">
        <ele>142.412476</ele>
        <time>2013-08-27T08:31:44Z</time>
      </trkpt>
      <trkpt lat="43.32625" lon="-0.54417">
        <ele>141.931763</ele>
        <time>2013-08-27T08:31:49Z</time>
      </trkpt>
      <trkpt lat="43.32622" lon="-0.54348">
        <ele>140.970459</ele>
        <time>2013-08-27T08:31:59Z</time>
      </trkpt>
      <trkpt lat="43.32629" lon="-0.54326">
        <ele>140.489868</ele>
        <time>2013-08-27T08:32:03Z</time>
      </trkpt>
      <trkpt lat="43.32708" lon="-0.54243">
        <ele>139.528442</ele>
        <time>2013-08-27T08:32:18Z</time>
      </trkpt>
      <trkpt lat="43.32725" lon="-0.54222">
        <ele>137.605835</ele>
        <time>2013-08-27T08:32:21Z</time>
      </trkpt>
      <trkpt lat="43.32786" lon="-0.54132">
        <ele>134.721924</ele>
        <time>2013-08-27T08:32:32Z</time>
      </trkpt>
      <trkpt lat="43.32792" lon="-0.54123">
        <ele>134.721924</ele>
        <time>2013-08-27T08:32:33Z</time>
      </trkpt>
      <trkpt lat="43.32853" lon="-0.54027">
        <ele>131.3573</ele>
        <time>2013-08-27T08:32:43Z</time>
      </trkpt>
      <trkpt lat="43.32905" lon="-0.53896">
        <ele>128.954102</ele>
        <time>2013-08-27T08:32:55Z</time>
      </trkpt>
      <trkpt lat="43.32961" lon="-0.53779">
        <ele>128.473389</ele>
        <time>2013-08-27T08:33:08Z</time>
      </trkpt>
      <trkpt lat="43.33053" lon="-0.53717">
        <ele>127.511963</ele>
        <time>2013-08-27T08:33:22Z</time>
      </trkpt>
      <trkpt lat="43.33154" lon="-0.53632">
        <ele>127.511963</ele>
        <time>2013-08-27T08:33:40Z</time>
      </trkpt>
      <trkpt lat="43.33269" lon="-0.53482">
        <ele>127.031372</ele>
        <time>2013-08-27T08:34:04Z</time>
      </trkpt>
      <trkpt lat="43.33348" lon="-0.53378">
        <ele>128.954102</ele>
        <time>2013-08-27T08:34:24Z</time>
      </trkpt>
      <trkpt lat="43.33406" lon="-0.53301">
        <ele>131.3573</ele>
        <time>2013-08-27T08:34:42Z</time>
      </trkpt>
      <trkpt lat="43.33468" lon="-0.53221">
        <ele>132.318604</ele>
        <time>2013-08-27T08:35:03Z</time>
      </trkpt>
      <trkpt lat="43.33476" lon="-0.53205">
        <ele>132.799316</ele>
        <time>2013-08-27T08:35:07Z</time>
      </trkpt>
      <trkpt lat="43.33455" lon="-0.53188">
        <ele>133.279907</ele>
        <time>2013-08-27T08:35:14Z</time>
      </trkpt>
      <trkpt lat="43.33447" lon="-0.53189">
        <ele>132.799316</ele>
        <time>2013-08-27T08:35:16Z</time>
      </trkpt>
      <trkpt lat="43.33384" lon="-0.53212">
        <ele>135.202515</ele>
        <time>2013-08-27T08:35:32Z</time>
      </trkpt>
      <trkpt lat="43.3335" lon="-0.53202">
        <ele>134.721924</ele>
        <time>2013-08-27T08:35:41Z</time>
      </trkpt>
      <trkpt lat="43.33333" lon="-0.53173">
        <ele>134.721924</ele>
        <time>2013-08-27T08:35:47Z</time>
      </trkpt>
      <trkpt lat="43.33321" lon="-0.53129">
        <ele>136.16394</ele>
        <time>2013-08-27T08:35:54Z</time>
      </trkpt>
      <trkpt lat="43.33316" lon="-0.53107">
        <ele>136.644653</ele>
        <time>2013-08-27T08:35:58Z</time>
      </trkpt>
      <trkpt lat="43.33282" lon="-0.53024">
        <ele>136.644653</ele>
        <time>2013-08-27T08:36:14Z</time>
      </trkpt>
      <trkpt lat="43.33217" lon="-0.5296">
        <ele>134.721924</ele>
        <time>2013-08-27T08:36:27Z</time>
      </trkpt>
      <trkpt lat="43.33197" lon="-0.52944">
        <ele>134.241211</ele>
        <time>2013-08-27T08:36:31Z</time>
      </trkpt>
      <trkpt lat="43.33179" lon="-0.52926">
        <ele>134.241211</ele>
        <time>2013-08-27T08:36:35Z</time>
      </trkpt>
      <trkpt lat="43.33146" lon="-0.52868">
        <ele>134.721924</ele>
        <time>2013-08-27T08:36:44Z</time>
      </trkpt>
      <trkpt lat="43.3309" lon="-0.52788">
        <ele>134.721924</ele>
        <time>2013-08-27T08:36:58Z</time>
      </trkpt>
      <trkpt lat="43.33076" lon="-0.52764">
        <ele>134.721924</ele>
        <time>2013-08-27T08:37:02Z</time>
      </trkpt>
      <trkpt lat="43.33036" lon="-0.52637">
        <ele>133.760498</ele>
        <time>2013-08-27T08:37:19Z</time>
      </trkpt>
      <trkpt lat="43.33023" lon="-0.52607">
        <ele>134.721924</ele>
        <time>2013-08-27T08:37:24Z</time>
      </trkpt>
      <trkpt lat="43.32999" lon="-0.52543">
        <ele>137.605835</ele>
        <time>2013-08-27T08:37:39Z</time>
      </trkpt>
      <trkpt lat="43.3298" lon="-0.52502">
        <ele>139.047852</ele>
        <time>2013-08-27T08:37:53Z</time>
      </trkpt>
      <trkpt lat="43.32964" lon="-0.52441">
        <ele>140.009155</ele>
        <time>2013-08-27T08:38:06Z</time>
      </trkpt>
      <trkpt lat="43.32951" lon="-0.52387">
        <ele>140.489868</ele>
        <time>2013-08-27T08:38:16Z</time>
      </trkpt>
      <trkpt lat="43.32935" lon="-0.52314">
        <ele>141.931763</ele>
        <time>2013-08-27T08:38:31Z</time>
      </trkpt>
      <trkpt lat="43.32933" lon="-0.52309">
        <ele>140.970459</ele>
        <time>2013-08-27T08:38:32Z</time>
      </trkpt>
      <trkpt lat="43.32906" lon="-0.52289">
        <ele>140.489868</ele>
        <time>2013-08-27T08:38:38Z</time>
      </trkpt>
      <trkpt lat="43.32862" lon="-0.52289">
        <ele>138.567261</ele>
        <time>2013-08-27T08:38:45Z</time>
      </trkpt>
      <trkpt lat="43.32805" lon="-0.5228">
        <ele>136.16394</ele>
        <time>2013-08-27T08:38:53Z</time>
      </trkpt>
      <trkpt lat="43.3279" lon="-0.52273">
        <ele>135.202515</ele>
        <time>2013-08-27T08:38:55Z</time>
      </trkpt>
      <trkpt lat="43.32715" lon="-0.52228">
        <ele>133.279907</ele>
        <time>2013-08-27T08:39:07Z</time>
      </trkpt>
      <trkpt lat="43.32677" lon="-0.52201">
        <ele>134.721924</ele>
        <time>2013-08-27T08:39:15Z</time>
      </trkpt>
      <trkpt lat="43.32613" lon="-0.52122">
        <ele>134.721924</ele>
        <time>2013-08-27T08:39:31Z</time>
      </trkpt>
      <trkpt lat="43.32577" lon="-0.52066">
        <ele>135.202515</ele>
        <time>2013-08-27T08:39:41Z</time>
      </trkpt>
      <trkpt lat="43.32569" lon="-0.5205">
        <ele>136.644653</ele>
        <time>2013-08-27T08:39:44Z</time>
      </trkpt>
      <trkpt lat="43.32565" lon="-0.5204">
        <ele>137.125244</ele>
        <time>2013-08-27T08:39:46Z</time>
      </trkpt>
      <trkpt lat="43.32531" lon="-0.51987">
        <ele>140.009155</ele>
        <time>2013-08-27T08:39:59Z</time>
      </trkpt>
      <trkpt lat="43.32467" lon="-0.5194">
        <ele>140.009155</ele>
        <time>2013-08-27T08:40:16Z</time>
      </trkpt>
      <trkpt lat="43.32398" lon="-0.51888">
        <ele>138.086548</ele>
        <time>2013-08-27T08:40:28Z</time>
      </trkpt>
      <trkpt lat="43.32325" lon="-0.51827">
        <ele>135.202515</ele>
        <time>2013-08-27T08:40:39Z</time>
      </trkpt>
      <trkpt lat="43.32283" lon="-0.5177">
        <ele>136.644653</ele>
        <time>2013-08-27T08:40:49Z</time>
      </trkpt>
      <trkpt lat="43.32277" lon="-0.5176">
        <ele>137.125244</ele>
        <time>2013-08-27T08:40:51Z</time>
      </trkpt>
      <trkpt lat="43.32268" lon="-0.5174">
        <ele>138.086548</ele>
        <time>2013-08-27T08:40:55Z</time>
      </trkpt>
      <trkpt lat="43.32225" lon="-0.51668">
        <ele>140.009155</ele>
        <time>2013-08-27T08:41:12Z</time>
      </trkpt>
      <trkpt lat="43.32176" lon="-0.51614">
        <ele>140.970459</ele>
        <time>2013-08-27T08:41:27Z</time>
      </trkpt>
      <trkpt lat="43.32127" lon="-0.51575">
        <ele>141.45105</ele>
        <time>2013-08-27T08:41:41Z</time>
      </trkpt>
      <trkpt lat="43.32106" lon="-0.51557">
        <ele>144.815796</ele>
        <time>2013-08-27T08:41:48Z</time>
      </trkpt>
      <trkpt lat="43.32089" lon="-0.51542">
        <ele>144.335205</ele>
        <time>2013-08-27T08:41:53Z</time>
      </trkpt>
      <trkpt lat="43.32048" lon="-0.51501">
        <ele>145.7771</ele>
        <time>2013-08-27T08:42:06Z</time>
      </trkpt>
      <trkpt lat="43.32035" lon="-0.5147">
        <ele>146.257813</ele>
        <time>2013-08-27T08:42:18Z</time>
      </trkpt>
      <trkpt lat="43.32035" lon="-0.51471">
        <ele>146.257813</ele>
        <time>2013-08-27T08:43:17Z</time>
      </trkpt>
      <trkpt lat="43.32036" lon="-0.51472">
        <ele>146.257813</ele>
        <time>2013-08-27T08:43:51Z</time>
      </trkpt>
      <trkpt lat="43.32037" lon="-0.51473">
        <ele>146.257813</ele>
        <time>2013-08-27T08:43:54Z</time>
      </trkpt>
      <trkpt lat="43.32058" lon="-0.51509">
        <ele>146.257813</ele>
        <time>2013-08-27T08:44:05Z</time>
      </trkpt>
      <trkpt lat="43.32066" lon="-0.51517">
        <ele>145.296387</ele>
        <time>2013-08-27T08:44:07Z</time>
      </trkpt>
      <trkpt lat="43.32116" lon="-0.51561">
        <ele>144.815796</ele>
        <time>2013-08-27T08:44:18Z</time>
      </trkpt>
      <trkpt lat="43.32137" lon="-0.51577">
        <ele>142.893066</ele>
        <time>2013-08-27T08:44:22Z</time>
      </trkpt>
      <trkpt lat="43.32214" lon="-0.51644">
        <ele>140.970459</ele>
        <time>2013-08-27T08:44:35Z</time>
      </trkpt>
      <trkpt lat="43.32245" lon="-0.51679">
        <ele>140.489868</ele>
        <time>2013-08-27T08:44:41Z</time>
      </trkpt>
      <trkpt lat="43.32302" lon="-0.51775">
        <ele>137.605835</ele>
        <time>2013-08-27T08:44:54Z</time>
      </trkpt>
      <trkpt lat="43.32366" lon="-0.51848">
        <ele>136.16394</ele>
        <time>2013-08-27T08:45:06Z</time>
      </trkpt>
      <trkpt lat="43.3239" lon="-0.5187">
        <ele>136.644653</ele>
        <time>2013-08-27T08:45:11Z</time>
      </trkpt>
      <trkpt lat="43.3244" lon="-0.51907">
        <ele>139.047852</ele>
        <time>2013-08-27T08:45:24Z</time>
      </trkpt>
      <trkpt lat="43.32478" lon="-0.51938">
        <ele>140.489868</ele>
        <time>2013-08-27T08:45:36Z</time>
      </trkpt>
      <trkpt lat="43.32516" lon="-0.51969">
        <ele>140.489868</ele>
        <time>2013-08-27T08:45:47Z</time>
      </trkpt>
      <trkpt lat="43.32524" lon="-0.51976">
        <ele>140.489868</ele>
        <time>2013-08-27T08:45:49Z</time>
      </trkpt>
      <trkpt lat="43.32569" lon="-0.52033">
        <ele>138.567261</ele>
        <time>2013-08-27T08:45:59Z</time>
      </trkpt>
      <trkpt lat="43.32624" lon="-0.52121">
        <ele>136.644653</ele>
        <time>2013-08-27T08:46:10Z</time>
      </trkpt>
      <trkpt lat="43.32671" lon="-0.52184">
        <ele>136.16394</ele>
        <time>2013-08-27T08:46:20Z</time>
      </trkpt>
      <trkpt lat="43.32744" lon="-0.52238">
        <ele>134.241211</ele>
        <time>2013-08-27T08:46:33Z</time>
      </trkpt>
      <trkpt lat="43.32761" lon="-0.5225">
        <ele>135.202515</ele>
        <time>2013-08-27T08:46:36Z</time>
      </trkpt>
      <trkpt lat="43.32826" lon="-0.52282">
        <ele>137.125244</ele>
        <time>2013-08-27T08:46:49Z</time>
      </trkpt>
      <trkpt lat="43.32873" lon="-0.52286">
        <ele>138.567261</ele>
        <time>2013-08-27T08:47:02Z</time>
      </trkpt>
      <trkpt lat="43.32912" lon="-0.52287">
        <ele>140.489868</ele>
        <time>2013-08-27T08:47:14Z</time>
      </trkpt>
      <trkpt lat="43.32941" lon="-0.52313">
        <ele>142.412476</ele>
        <time>2013-08-27T08:47:25Z</time>
      </trkpt>
      <trkpt lat="43.32955" lon="-0.52372">
        <ele>143.85437</ele>
        <time>2013-08-27T08:47:39Z</time>
      </trkpt>
      <trkpt lat="43.32957" lon="-0.52384">
        <ele>142.893066</ele>
        <time>2013-08-27T08:47:41Z</time>
      </trkpt>
      <trkpt lat="43.32967" lon="-0.52432">
        <ele>141.931763</ele>
        <time>2013-08-27T08:47:48Z</time>
      </trkpt>
      <trkpt lat="43.32976" lon="-0.52468">
        <ele>140.489868</ele>
        <time>2013-08-27T08:47:53Z</time>
      </trkpt>
      <trkpt lat="43.33013" lon="-0.52561">
        <ele>139.528442</ele>
        <time>2013-08-27T08:48:05Z</time>
      </trkpt>
      <trkpt lat="43.33036" lon="-0.52615">
        <ele>137.605835</ele>
        <time>2013-08-27T08:48:11Z</time>
      </trkpt>
      <trkpt lat="43.33052" lon="-0.52649">
        <ele>136.16394</ele>
        <time>2013-08-27T08:48:15Z</time>
      </trkpt>
      <trkpt lat="43.33079" lon="-0.52754">
        <ele>136.644653</ele>
        <time>2013-08-27T08:48:28Z</time>
      </trkpt>
      <trkpt lat="43.33113" lon="-0.5281">
        <ele>137.125244</ele>
        <time>2013-08-27T08:48:37Z</time>
      </trkpt>
      <trkpt lat="43.33141" lon="-0.52843">
        <ele>137.125244</ele>
        <time>2013-08-27T08:48:43Z</time>
      </trkpt>
      <trkpt lat="43.332" lon="-0.52938">
        <ele>136.644653</ele>
        <time>2013-08-27T08:48:58Z</time>
      </trkpt>
      <trkpt lat="43.33218" lon="-0.52953">
        <ele>137.125244</ele>
        <time>2013-08-27T08:49:02Z</time>
      </trkpt>
      <trkpt lat="43.33276" lon="-0.5301">
        <ele>136.644653</ele>
        <time>2013-08-27T08:49:15Z</time>
      </trkpt>
      <trkpt lat="43.33283" lon="-0.53019">
        <ele>137.605835</ele>
        <time>2013-08-27T08:49:17Z</time>
      </trkpt>
      <trkpt lat="43.3331" lon="-0.53067">
        <ele>138.567261</ele>
        <time>2013-08-27T08:49:28Z</time>
      </trkpt>
      <trkpt lat="43.33317" lon="-0.53095">
        <ele>138.567261</ele>
        <time>2013-08-27T08:49:33Z</time>
      </trkpt>
      <trkpt lat="43.33332" lon="-0.53154">
        <ele>137.125244</ele>
        <time>2013-08-27T08:49:42Z</time>
      </trkpt>
      <trkpt lat="43.33341" lon="-0.53181">
        <ele>137.605835</ele>
        <time>2013-08-27T08:49:46Z</time>
      </trkpt>
      <trkpt lat="43.33347" lon="-0.53192">
        <ele>137.125244</ele>
        <time>2013-08-27T08:49:48Z</time>
      </trkpt>
      <trkpt lat="43.33372" lon="-0.5321">
        <ele>137.125244</ele>
        <time>2013-08-27T08:49:54Z</time>
      </trkpt>
      <trkpt lat="43.33384" lon="-0.53211">
        <ele>136.644653</ele>
        <time>2013-08-27T08:49:57Z</time>
      </trkpt>
      <trkpt lat="43.33444" lon="-0.53191">
        <ele>134.721924</ele>
        <time>2013-08-27T08:50:09Z</time>
      </trkpt>
      <trkpt lat="43.33457" lon="-0.5319">
        <ele>135.683105</ele>
        <time>2013-08-27T08:50:12Z</time>
      </trkpt>
      <trkpt lat="43.33473" lon="-0.53194">
        <ele>135.683105</ele>
        <time>2013-08-27T08:50:16Z</time>
      </trkpt>
      <trkpt lat="43.33476" lon="-0.53215">
        <ele>135.683105</ele>
        <time>2013-08-27T08:50:22Z</time>
      </trkpt>
      <trkpt lat="43.33464" lon="-0.53231">
        <ele>135.202515</ele>
        <time>2013-08-27T08:50:27Z</time>
      </trkpt>
      <trkpt lat="43.33474" lon="-0.53244">
        <ele>136.16394</ele>
        <time>2013-08-27T08:50:35Z</time>
      </trkpt>
      <trkpt lat="43.33477" lon="-0.53242">
        <ele>136.16394</ele>
        <time>2013-08-27T08:50:36Z</time>
      </trkpt>
      <trkpt lat="43.33505" lon="-0.53228">
        <ele>138.567261</ele>
        <time>2013-08-27T08:50:49Z</time>
      </trkpt>
      <trkpt lat="43.3353" lon="-0.53232">
        <ele>140.009155</ele>
        <time>2013-08-27T08:51:00Z</time>
      </trkpt>
      <trkpt lat="43.33539" lon="-0.53232">
        <ele>141.45105</ele>
        <time>2013-08-27T08:51:04Z</time>
      </trkpt>
      <trkpt lat="43.33559" lon="-0.53234">
        <ele>142.893066</ele>
        <time>2013-08-27T08:51:14Z</time>
      </trkpt>
      <trkpt lat="43.33584" lon="-0.5324">
        <ele>145.7771</ele>
        <time>2013-08-27T08:51:29Z</time>
      </trkpt>
      <trkpt lat="43.33608" lon="-0.53241">
        <ele>148.18042</ele>
        <time>2013-08-27T08:51:43Z</time>
      </trkpt>
      <trkpt lat="43.33632" lon="-0.5325">
        <ele>151.544922</ele>
        <time>2013-08-27T08:51:57Z</time>
      </trkpt>
      <trkpt lat="43.33643" lon="-0.53254">
        <ele>152.986938</ele>
        <time>2013-08-27T08:52:04Z</time>
      </trkpt>
      <trkpt lat="43.33646" lon="-0.53256">
        <ele>153.467651</ele>
        <time>2013-08-27T08:52:06Z</time>
      </trkpt>
      <trkpt lat="43.33673" lon="-0.53277">
        <ele>155.390259</ele>
        <time>2013-08-27T08:52:21Z</time>
      </trkpt>
      <trkpt lat="43.33707" lon="-0.53309">
        <ele>157.793579</ele>
        <time>2013-08-27T08:52:39Z</time>
      </trkpt>
      <trkpt lat="43.33729" lon="-0.53309">
        <ele>158.754761</ele>
        <time>2013-08-27T08:52:52Z</time>
      </trkpt>
      <trkpt lat="43.33751" lon="-0.53304">
        <ele>162.119507</ele>
        <time>2013-08-27T08:53:05Z</time>
      </trkpt>
      <trkpt lat="43.33776" lon="-0.53308">
        <ele>164.042114</ele>
        <time>2013-08-27T08:53:20Z</time>
      </trkpt>
      <trkpt lat="43.33797" lon="-0.53306">
        <ele>166.926025</ele>
        <time>2013-08-27T08:53:32Z</time>
      </trkpt>
      <trkpt lat="43.33816" lon="-0.53304">
        <ele>169.329468</ele>
        <time>2013-08-27T08:53:45Z</time>
      </trkpt>
      <trkpt lat="43.33832" lon="-0.53303">
        <ele>172.69397</ele>
        <time>2013-08-27T08:53:56Z</time>
      </trkpt>
      <trkpt lat="43.33854" lon="-0.53304">
        <ele>176.539307</ele>
        <time>2013-08-27T08:54:09Z</time>
      </trkpt>
      <trkpt lat="43.33882" lon="-0.53309">
        <ele>177.02002</ele>
        <time>2013-08-27T08:54:24Z</time>
      </trkpt>
      <trkpt lat="43.33905" lon="-0.53311">
        <ele>178.942627</ele>
        <time>2013-08-27T08:54:36Z</time>
      </trkpt>
      <trkpt lat="43.33928" lon="-0.53319">
        <ele>180.384521</ele>
        <time>2013-08-27T08:54:49Z</time>
      </trkpt>
      <trkpt lat="43.3395" lon="-0.53315">
        <ele>181.826416</ele>
        <time>2013-08-27T08:55:01Z</time>
      </trkpt>
      <trkpt lat="43.33962" lon="-0.53307">
        <ele>185.191162</ele>
        <time>2013-08-27T08:55:09Z</time>
      </trkpt>
      <trkpt lat="43.33964" lon="-0.53307">
        <ele>184.710571</ele>
        <time>2013-08-27T08:55:10Z</time>
      </trkpt>
      <trkpt lat="43.33988" lon="-0.53311">
        <ele>187.11377</ele>
        <time>2013-08-27T08:55:24Z</time>
      </trkpt>
      <trkpt lat="43.34016" lon="-0.53312">
        <ele>189.516968</ele>
        <time>2013-08-27T08:55:39Z</time>
      </trkpt>
      <trkpt lat="43.34037" lon="-0.53309">
        <ele>192.401123</ele>
        <time>2013-08-27T08:55:51Z</time>
      </trkpt>
      <trkpt lat="43.34056" lon="-0.53289">
        <ele>193.843018</ele>
        <time>2013-08-27T08:56:05Z</time>
      </trkpt>
      <trkpt lat="43.34072" lon="-0.53273">
        <ele>197.688232</ele>
        <time>2013-08-27T08:56:16Z</time>
      </trkpt>
      <trkpt lat="43.34089" lon="-0.53261">
        <ele>200.572266</ele>
        <time>2013-08-27T08:56:28Z</time>
      </trkpt>
      <trkpt lat="43.3409" lon="-0.53261">
        <ele>200.572266</ele>
        <time>2013-08-27T08:56:29Z</time>
      </trkpt>
      <trkpt lat="43.34106" lon="-0.53246">
        <ele>202.494873</ele>
        <time>2013-08-27T08:56:43Z</time>
      </trkpt>
      <trkpt lat="43.34124" lon="-0.53225">
        <ele>204.898071</ele>
        <time>2013-08-27T08:56:57Z</time>
      </trkpt>
      <trkpt lat="43.34133" lon="-0.53206">
        <ele>207.782104</ele>
        <time>2013-08-27T08:57:07Z</time>
      </trkpt>
      <trkpt lat="43.34137" lon="-0.53198">
        <ele>208.262817</ele>
        <time>2013-08-27T08:57:12Z</time>
      </trkpt>
      <trkpt lat="43.34147" lon="-0.53181">
        <ele>211.627441</ele>
        <time>2013-08-27T08:57:24Z</time>
      </trkpt>
      <trkpt lat="43.3417" lon="-0.5318">
        <ele>214.51123</ele>
        <time>2013-08-27T08:57:42Z</time>
      </trkpt>
      <trkpt lat="43.34172" lon="-0.5318">
        <ele>214.03064</ele>
        <time>2013-08-27T08:57:44Z</time>
      </trkpt>
      <trkpt lat="43.34178" lon="-0.53174">
        <ele>214.51123</ele>
        <time>2013-08-27T08:57:49Z</time>
      </trkpt>
      <trkpt lat="43.34192" lon="-0.53153">
        <ele>214.51123</ele>
        <time>2013-08-27T08:58:02Z</time>
      </trkpt>
      <trkpt lat="43.34224" lon="-0.53112">
        <ele>213.550049</ele>
        <time>2013-08-27T08:58:13Z</time>
      </trkpt>
      <trkpt lat="43.3426" lon="-0.53062">
        <ele>214.51123</ele>
        <time>2013-08-27T08:58:25Z</time>
      </trkpt>
      <trkpt lat="43.34286" lon="-0.53024">
        <ele>215.953247</ele>
        <time>2013-08-27T08:58:35Z</time>
      </trkpt>
      <trkpt lat="43.34308" lon="-0.53005">
        <ele>214.991943</ele>
        <time>2013-08-27T08:58:42Z</time>
      </trkpt>
      <trkpt lat="43.3433" lon="-0.52998">
        <ele>214.03064</ele>
        <time>2013-08-27T08:58:46Z</time>
      </trkpt>
      <trkpt lat="43.34379" lon="-0.52994">
        <ele>212.108032</ele>
        <time>2013-08-27T08:58:55Z</time>
      </trkpt>
      <trkpt lat="43.34391" lon="-0.53003">
        <ele>213.550049</ele>
        <time>2013-08-27T08:58:58Z</time>
      </trkpt>
      <trkpt lat="43.34394" lon="-0.53007">
        <ele>214.03064</ele>
        <time>2013-08-27T08:58:59Z</time>
      </trkpt>
      <trkpt lat="43.34402" lon="-0.53021">
        <ele>214.51123</ele>
        <time>2013-08-27T08:59:02Z</time>
      </trkpt>
      <trkpt lat="43.34425" lon="-0.53064">
        <ele>215.953247</ele>
        <time>2013-08-27T08:59:10Z</time>
      </trkpt>
      <trkpt lat="43.34427" lon="-0.53114">
        <ele>215.472656</ele>
        <time>2013-08-27T08:59:21Z</time>
      </trkpt>
      <trkpt lat="43.34431" lon="-0.5314">
        <ele>214.991943</ele>
        <time>2013-08-27T08:59:26Z</time>
      </trkpt>
      <trkpt lat="43.34434" lon="-0.53169">
        <ele>214.03064</ele>
        <time>2013-08-27T08:59:30Z</time>
      </trkpt>
      <trkpt lat="43.34448" lon="-0.53219">
        <ele>214.991943</ele>
        <time>2013-08-27T08:59:35Z</time>
      </trkpt>
      <trkpt lat="43.34459" lon="-0.53246">
        <ele>214.991943</ele>
        <time>2013-08-27T08:59:40Z</time>
      </trkpt>
      <trkpt lat="43.34473" lon="-0.5328">
        <ele>215.472656</ele>
        <time>2013-08-27T08:59:46Z</time>
      </trkpt>
      <trkpt lat="43.34494" lon="-0.53319">
        <ele>216.914673</ele>
        <time>2013-08-27T08:59:56Z</time>
      </trkpt>
      <trkpt lat="43.34499" lon="-0.53346">
        <ele>215.953247</ele>
        <time>2013-08-27T09:00:05Z</time>
      </trkpt>
      <trkpt lat="43.34498" lon="-0.5336">
        <ele>214.991943</ele>
        <time>2013-08-27T09:00:07Z</time>
      </trkpt>
      <trkpt lat="43.34506" lon="-0.53412">
        <ele>211.146729</ele>
        <time>2013-08-27T09:00:12Z</time>
      </trkpt>
      <trkpt lat="43.34518" lon="-0.53445">
        <ele>210.666016</ele>
        <time>2013-08-27T09:00:16Z</time>
      </trkpt>
      <trkpt lat="43.34535" lon="-0.5349">
        <ele>211.146729</ele>
        <time>2013-08-27T09:00:22Z</time>
      </trkpt>
      <trkpt lat="43.34538" lon="-0.53539">
        <ele>211.627441</ele>
        <time>2013-08-27T09:00:31Z</time>
      </trkpt>
      <trkpt lat="43.34538" lon="-0.53563">
        <ele>211.146729</ele>
        <time>2013-08-27T09:00:35Z</time>
      </trkpt>
      <trkpt lat="43.34537" lon="-0.5359">
        <ele>212.588623</ele>
        <time>2013-08-27T09:00:39Z</time>
      </trkpt>
      <trkpt lat="43.34552" lon="-0.53639">
        <ele>214.51123</ele>
        <time>2013-08-27T09:00:51Z</time>
      </trkpt>
      <trkpt lat="43.34565" lon="-0.53651">
        <ele>217.875977</ele>
        <time>2013-08-27T09:00:59Z</time>
      </trkpt>
      <trkpt lat="43.34587" lon="-0.53644">
        <ele>217.395386</ele>
        <time>2013-08-27T09:01:13Z</time>
      </trkpt>
      <trkpt lat="43.34597" lon="-0.53632">
        <ele>215.953247</ele>
        <time>2013-08-27T09:01:17Z</time>
      </trkpt>
      <trkpt lat="43.34618" lon="-0.53601">
        <ele>214.51123</ele>
        <time>2013-08-27T09:01:22Z</time>
      </trkpt>
      <trkpt lat="43.3463" lon="-0.53576">
        <ele>213.550049</ele>
        <time>2013-08-27T09:01:25Z</time>
      </trkpt>
      <trkpt lat="43.34636" lon="-0.53559">
        <ele>212.588623</ele>
        <time>2013-08-27T09:01:27Z</time>
      </trkpt>
      <trkpt lat="43.34649" lon="-0.53497">
        <ele>209.224121</ele>
        <time>2013-08-27T09:01:33Z</time>
      </trkpt>
      <trkpt lat="43.34675" lon="-0.53433">
        <ele>205.859497</ele>
        <time>2013-08-27T09:01:39Z</time>
      </trkpt>
      <trkpt lat="43.3468" lon="-0.53423">
        <ele>205.859497</ele>
        <time>2013-08-27T09:01:40Z</time>
      </trkpt>
      <trkpt lat="43.3469" lon="-0.53391">
        <ele>204.41748</ele>
        <time>2013-08-27T09:01:43Z</time>
      </trkpt>
      <trkpt lat="43.34697" lon="-0.53339">
        <ele>203.456177</ele>
        <time>2013-08-27T09:01:48Z</time>
      </trkpt>
      <trkpt lat="43.34701" lon="-0.53318">
        <ele>202.494873</ele>
        <time>2013-08-27T09:01:50Z</time>
      </trkpt>
      <trkpt lat="43.34716" lon="-0.53279">
        <ele>202.975464</ele>
        <time>2013-08-27T09:01:55Z</time>
      </trkpt>
      <trkpt lat="43.34722" lon="-0.53259">
        <ele>202.494873</ele>
        <time>2013-08-27T09:01:58Z</time>
      </trkpt>
      <trkpt lat="43.34739" lon="-0.53233">
        <ele>202.014282</ele>
        <time>2013-08-27T09:02:03Z</time>
      </trkpt>
      <trkpt lat="43.34789" lon="-0.53175">
        <ele>199.61084</ele>
        <time>2013-08-27T09:02:13Z</time>
      </trkpt>
      <trkpt lat="43.34809" lon="-0.53164">
        <ele>197.688232</ele>
        <time>2013-08-27T09:02:17Z</time>
      </trkpt>
      <trkpt lat="43.34858" lon="-0.53168">
        <ele>196.246338</ele>
        <time>2013-08-27T09:02:30Z</time>
      </trkpt>
      <trkpt lat="43.3489" lon="-0.5317">
        <ele>198.649536</ele>
        <time>2013-08-27T09:02:40Z</time>
      </trkpt>
      <trkpt lat="43.34902" lon="-0.53171">
        <ele>200.091675</ele>
        <time>2013-08-27T09:02:44Z</time>
      </trkpt>
      <trkpt lat="43.34918" lon="-0.53172">
        <ele>201.052856</ele>
        <time>2013-08-27T09:02:52Z</time>
      </trkpt>
      <trkpt lat="43.34946" lon="-0.53208">
        <ele>202.494873</ele>
        <time>2013-08-27T09:03:07Z</time>
      </trkpt>
      <trkpt lat="43.34967" lon="-0.53243">
        <ele>203.456177</ele>
        <time>2013-08-27T09:03:19Z</time>
      </trkpt>
      <trkpt lat="43.34975" lon="-0.53292">
        <ele>202.494873</ele>
        <time>2013-08-27T09:03:31Z</time>
      </trkpt>
      <trkpt lat="43.34981" lon="-0.53318">
        <ele>201.533569</ele>
        <time>2013-08-27T09:03:34Z</time>
      </trkpt>
      <trkpt lat="43.34996" lon="-0.53347">
        <ele>201.052856</ele>
        <time>2013-08-27T09:03:38Z</time>
      </trkpt>
      <trkpt lat="43.35001" lon="-0.53366">
        <ele>200.091675</ele>
        <time>2013-08-27T09:03:41Z</time>
      </trkpt>
      <trkpt lat="43.35008" lon="-0.53453">
        <ele>199.130127</ele>
        <time>2013-08-27T09:03:52Z</time>
      </trkpt>
      <trkpt lat="43.35004" lon="-0.53572">
        <ele>196.246338</ele>
        <time>2013-08-27T09:04:07Z</time>
      </trkpt>
      <trkpt lat="43.35005" lon="-0.53596">
        <ele>196.246338</ele>
        <time>2013-08-27T09:04:10Z</time>
      </trkpt>
      <trkpt lat="43.35036" lon="-0.53707">
        <ele>192.881714</ele>
        <time>2013-08-27T09:04:24Z</time>
      </trkpt>
      <trkpt lat="43.35054" lon="-0.53776">
        <ele>193.843018</ele>
        <time>2013-08-27T09:04:36Z</time>
      </trkpt>
      <trkpt lat="43.35064" lon="-0.53821">
        <ele>198.168945</ele>
        <time>2013-08-27T09:04:48Z</time>
      </trkpt>
      <trkpt lat="43.35071" lon="-0.53863">
        <ele>198.649536</ele>
        <time>2013-08-27T09:04:59Z</time>
      </trkpt>
      <trkpt lat="43.35069" lon="-0.5391">
        <ele>200.091675</ele>
        <time>2013-08-27T09:05:09Z</time>
      </trkpt>
      <trkpt lat="43.35068" lon="-0.53921">
        <ele>199.61084</ele>
        <time>2013-08-27T09:05:11Z</time>
      </trkpt>
      <trkpt lat="43.35069" lon="-0.53934">
        <ele>198.649536</ele>
        <time>2013-08-27T09:05:13Z</time>
      </trkpt>
      <trkpt lat="43.35085" lon="-0.53975">
        <ele>200.091675</ele>
        <time>2013-08-27T09:05:21Z</time>
      </trkpt>
      <trkpt lat="43.35108" lon="-0.54018">
        <ele>200.572266</ele>
        <time>2013-08-27T09:05:32Z</time>
      </trkpt>
      <trkpt lat="43.35134" lon="-0.54029">
        <ele>201.052856</ele>
        <time>2013-08-27T09:05:42Z</time>
      </trkpt>
      <trkpt lat="43.35171" lon="-0.54048">
        <ele>200.091675</ele>
        <time>2013-08-27T09:05:53Z</time>
      </trkpt>
      <trkpt lat="43.35176" lon="-0.54051">
        <ele>200.091675</ele>
        <time>2013-08-27T09:05:54Z</time>
      </trkpt>
      <trkpt lat="43.35193" lon="-0.54084">
        <ele>196.246338</ele>
        <time>2013-08-27T09:06:01Z</time>
      </trkpt>
      <trkpt lat="43.3519" lon="-0.54095">
        <ele>194.32373</ele>
        <time>2013-08-27T09:06:03Z</time>
      </trkpt>
      <trkpt lat="43.3518" lon="-0.54124">
        <ele>191.439575</ele>
        <time>2013-08-27T09:06:07Z</time>
      </trkpt>
      <trkpt lat="43.35171" lon="-0.54165">
        <ele>188.075073</ele>
        <time>2013-08-27T09:06:13Z</time>
      </trkpt>
      <trkpt lat="43.35175" lon="-0.54198">
        <ele>184.710571</ele>
        <time>2013-08-27T09:06:18Z</time>
      </trkpt>
      <trkpt lat="43.35192" lon="-0.54256">
        <ele>181.826416</ele>
        <time>2013-08-27T09:06:25Z</time>
      </trkpt>
      <trkpt lat="43.35202" lon="-0.54302">
        <ele>179.903809</ele>
        <time>2013-08-27T09:06:30Z</time>
      </trkpt>
      <trkpt lat="43.35201" lon="-0.54333">
        <ele>179.903809</ele>
        <time>2013-08-27T09:06:34Z</time>
      </trkpt>
      <trkpt lat="43.35186" lon="-0.54405">
        <ele>180.384521</ele>
        <time>2013-08-27T09:06:49Z</time>
      </trkpt>
      <trkpt lat="43.35168" lon="-0.54477">
        <ele>178.942627</ele>
        <time>2013-08-27T09:07:03Z</time>
      </trkpt>
      <trkpt lat="43.35166" lon="-0.54514">
        <ele>175.09729</ele>
        <time>2013-08-27T09:07:08Z</time>
      </trkpt>
      <trkpt lat="43.35166" lon="-0.54558">
        <ele>171.732666</ele>
        <time>2013-08-27T09:07:13Z</time>
      </trkpt>
      <trkpt lat="43.35167" lon="-0.54589">
        <ele>167.887329</ele>
        <time>2013-08-27T09:07:16Z</time>
      </trkpt>
      <trkpt lat="43.35142" lon="-0.54629">
        <ele>165.964722</ele>
        <time>2013-08-27T09:07:22Z</time>
      </trkpt>
      <trkpt lat="43.35128" lon="-0.54634">
        <ele>164.042114</ele>
        <time>2013-08-27T09:07:24Z</time>
      </trkpt>
      <trkpt lat="43.35088" lon="-0.54664">
        <ele>161.158203</ele>
        <time>2013-08-27T09:07:32Z</time>
      </trkpt>
      <trkpt lat="43.35064" lon="-0.54655">
        <ele>157.793579</ele>
        <time>2013-08-27T09:07:36Z</time>
      </trkpt>
      <trkpt lat="43.3505" lon="-0.54653">
        <ele>156.351563</ele>
        <time>2013-08-27T09:07:38Z</time>
      </trkpt>
      <trkpt lat="43.35005" lon="-0.54645">
        <ele>151.544922</ele>
        <time>2013-08-27T09:07:44Z</time>
      </trkpt>
      <trkpt lat="43.34986" lon="-0.5464">
        <ele>149.141602</ele>
        <time>2013-08-27T09:07:47Z</time>
      </trkpt>
      <trkpt lat="43.34968" lon="-0.54636">
        <ele>146.257813</ele>
        <time>2013-08-27T09:07:50Z</time>
      </trkpt>
      <trkpt lat="43.34962" lon="-0.54635">
        <ele>144.815796</ele>
        <time>2013-08-27T09:07:51Z</time>
      </trkpt>
      <trkpt lat="43.34939" lon="-0.54642">
        <ele>142.893066</ele>
        <time>2013-08-27T09:07:55Z</time>
      </trkpt>
      <trkpt lat="43.34926" lon="-0.5466">
        <ele>141.45105</ele>
        <time>2013-08-27T09:07:58Z</time>
      </trkpt>
      <trkpt lat="43.34912" lon="-0.54704">
        <ele>138.567261</ele>
        <time>2013-08-27T09:08:03Z</time>
      </trkpt>
      <trkpt lat="43.34893" lon="-0.54748">
        <ele>136.16394</ele>
        <time>2013-08-27T09:08:08Z</time>
      </trkpt>
      <trkpt lat="43.34865" lon="-0.54779">
        <ele>133.760498</ele>
        <time>2013-08-27T09:08:13Z</time>
      </trkpt>
      <trkpt lat="43.34847" lon="-0.54792">
        <ele>131.3573</ele>
        <time>2013-08-27T09:08:16Z</time>
      </trkpt>
      <trkpt lat="43.34842" lon="-0.54798">
        <ele>130.876709</ele>
        <time>2013-08-27T09:08:17Z</time>
      </trkpt>
      <trkpt lat="43.34833" lon="-0.54809">
        <ele>129.915283</ele>
        <time>2013-08-27T09:08:19Z</time>
      </trkpt>
      <trkpt lat="43.3483" lon="-0.54823">
        <ele>128.954102</ele>
        <time>2013-08-27T09:08:21Z</time>
      </trkpt>
      <trkpt lat="43.3482" lon="-0.54841">
        <ele>127.031372</ele>
        <time>2013-08-27T09:08:27Z</time>
      </trkpt>
      <trkpt lat="43.34805" lon="-0.54827">
        <ele>127.031372</ele>
        <time>2013-08-27T09:08:34Z</time>
      </trkpt>
      <trkpt lat="43.34769" lon="-0.54786">
        <ele>130.395996</ele>
        <time>2013-08-27T09:08:49Z</time>
      </trkpt>
      <trkpt lat="43.34767" lon="-0.54784">
        <ele>130.395996</ele>
        <time>2013-08-27T09:08:50Z</time>
      </trkpt>
      <trkpt lat="43.34744" lon="-0.54751">
        <ele>132.318604</ele>
        <time>2013-08-27T09:09:03Z</time>
      </trkpt>
      <trkpt lat="43.34706" lon="-0.54719">
        <ele>131.837891</ele>
        <time>2013-08-27T09:09:17Z</time>
      </trkpt>
      <trkpt lat="43.34662" lon="-0.54683">
        <ele>132.799316</ele>
        <time>2013-08-27T09:09:30Z</time>
      </trkpt>
      <trkpt lat="43.34649" lon="-0.54661">
        <ele>134.241211</ele>
        <time>2013-08-27T09:09:40Z</time>
      </trkpt>
      <trkpt lat="43.34651" lon="-0.54618">
        <ele>136.16394</ele>
        <time>2013-08-27T09:09:53Z</time>
      </trkpt>
      <trkpt lat="43.34658" lon="-0.54562">
        <ele>136.644653</ele>
        <time>2013-08-27T09:10:07Z</time>
      </trkpt>
      <trkpt lat="43.34662" lon="-0.54494">
        <ele>135.683105</ele>
        <time>2013-08-27T09:10:21Z</time>
      </trkpt>
      <trkpt lat="43.34664" lon="-0.54473">
        <ele>135.202515</ele>
        <time>2013-08-27T09:10:25Z</time>
      </trkpt>
      <trkpt lat="43.34674" lon="-0.54399">
        <ele>133.279907</ele>
        <time>2013-08-27T09:10:38Z</time>
      </trkpt>
      <trkpt lat="43.34677" lon="-0.54363">
        <ele>135.683105</ele>
        <time>2013-08-27T09:10:49Z</time>
      </trkpt>
      <trkpt lat="43.34681" lon="-0.54353">
        <ele>136.644653</ele>
        <time>2013-08-27T09:10:54Z</time>
      </trkpt>
      <trkpt lat="43.34685" lon="-0.5434">
        <ele>137.605835</ele>
        <time>2013-08-27T09:11:00Z</time>
      </trkpt>
      <trkpt lat="43.34687" lon="-0.54331">
        <ele>138.086548</ele>
        <time>2013-08-27T09:11:05Z</time>
      </trkpt>
      <trkpt lat="43.34694" lon="-0.54296">
        <ele>141.931763</ele>
        <time>2013-08-27T09:11:20Z</time>
      </trkpt>
      <trkpt lat="43.34694" lon="-0.5429">
        <ele>142.893066</ele>
        <time>2013-08-27T09:11:23Z</time>
      </trkpt>
      <trkpt lat="43.347" lon="-0.54269">
        <ele>144.815796</ele>
        <time>2013-08-27T09:11:32Z</time>
      </trkpt>
      <trkpt lat="43.34705" lon="-0.54233">
        <ele>147.218994</ele>
        <time>2013-08-27T09:11:46Z</time>
      </trkpt>
      <trkpt lat="43.34706" lon="-0.54215">
        <ele>149.141602</ele>
        <time>2013-08-27T09:11:54Z</time>
      </trkpt>
      <trkpt lat="43.34702" lon="-0.54213">
        <ele>150.583618</ele>
        <time>2013-08-27T09:11:57Z</time>
      </trkpt>
      <trkpt lat="43.3469" lon="-0.54222">
        <ele>152.025757</ele>
        <time>2013-08-27T09:12:08Z</time>
      </trkpt>
      <trkpt lat="43.34665" lon="-0.54232">
        <ele>153.467651</ele>
        <time>2013-08-27T09:12:21Z</time>
      </trkpt>
      <trkpt lat="43.34643" lon="-0.54243">
        <ele>156.351563</ele>
        <time>2013-08-27T09:12:32Z</time>
      </trkpt>
      <trkpt lat="43.34622" lon="-0.54249">
        <ele>158.754761</ele>
        <time>2013-08-27T09:12:43Z</time>
      </trkpt>
      <trkpt lat="43.34608" lon="-0.54255">
        <ele>160.196899</ele>
        <time>2013-08-27T09:12:52Z</time>
      </trkpt>
      <trkpt lat="43.34578" lon="-0.54259">
        <ele>162.119507</ele>
        <time>2013-08-27T09:13:08Z</time>
      </trkpt>
      <trkpt lat="43.34577" lon="-0.54259">
        <ele>162.119507</ele>
        <time>2013-08-27T09:13:09Z</time>
      </trkpt>
      <trkpt lat="43.34563" lon="-0.54252">
        <ele>164.042114</ele>
        <time>2013-08-27T09:13:18Z</time>
      </trkpt>
      <trkpt lat="43.34527" lon="-0.54226">
        <ele>164.042114</ele>
        <time>2013-08-27T09:13:34Z</time>
      </trkpt>
      <trkpt lat="43.34491" lon="-0.54214">
        <ele>164.042114</ele>
        <time>2013-08-27T09:13:47Z</time>
      </trkpt>
      <trkpt lat="43.34451" lon="-0.54209">
        <ele>164.522705</ele>
        <time>2013-08-27T09:13:59Z</time>
      </trkpt>
      <trkpt lat="43.34434" lon="-0.54205">
        <ele>163.561523</ele>
        <time>2013-08-27T09:14:10Z</time>
      </trkpt>
      <trkpt lat="43.34433" lon="-0.54202">
        <ele>163.080811</ele>
        <time>2013-08-27T09:14:20Z</time>
      </trkpt>
      <trkpt lat="43.34425" lon="-0.54192">
        <ele>163.080811</ele>
        <time>2013-08-27T09:14:26Z</time>
      </trkpt>
      <trkpt lat="43.34418" lon="-0.54181">
        <ele>162.119507</ele>
        <time>2013-08-27T09:14:29Z</time>
      </trkpt>
      <trkpt lat="43.34404" lon="-0.54194">
        <ele>160.67749</ele>
        <time>2013-08-27T09:14:36Z</time>
      </trkpt>
      <trkpt lat="43.34401" lon="-0.54245">
        <ele>157.312866</ele>
        <time>2013-08-27T09:14:42Z</time>
      </trkpt>
      <trkpt lat="43.3439" lon="-0.54299">
        <ele>154.909546</ele>
        <time>2013-08-27T09:14:48Z</time>
      </trkpt>
      <trkpt lat="43.34389" lon="-0.54345">
        <ele>150.103027</ele>
        <time>2013-08-27T09:14:53Z</time>
      </trkpt>
      <trkpt lat="43.34415" lon="-0.54374">
        <ele>148.661011</ele>
        <time>2013-08-27T09:15:00Z</time>
      </trkpt>
      <trkpt lat="43.34426" lon="-0.54371">
        <ele>144.815796</ele>
        <time>2013-08-27T09:15:02Z</time>
      </trkpt>
      <trkpt lat="43.34437" lon="-0.54369">
        <ele>143.85437</ele>
        <time>2013-08-27T09:15:04Z</time>
      </trkpt>
      <trkpt lat="43.34452" lon="-0.54399">
        <ele>141.45105</ele>
        <time>2013-08-27T09:15:10Z</time>
      </trkpt>
      <trkpt lat="43.3446" lon="-0.5442">
        <ele>140.970459</ele>
        <time>2013-08-27T09:15:13Z</time>
      </trkpt>
      <trkpt lat="43.34477" lon="-0.54444">
        <ele>139.047852</ele>
        <time>2013-08-27T09:15:17Z</time>
      </trkpt>
      <trkpt lat="43.34484" lon="-0.54452">
        <ele>138.086548</ele>
        <time>2013-08-27T09:15:19Z</time>
      </trkpt>
      <trkpt lat="43.345" lon="-0.54505">
        <ele>135.683105</ele>
        <time>2013-08-27T09:15:25Z</time>
      </trkpt>
      <trkpt lat="43.34509" lon="-0.5452">
        <ele>134.721924</ele>
        <time>2013-08-27T09:15:27Z</time>
      </trkpt>
      <trkpt lat="43.34525" lon="-0.54536">
        <ele>132.799316</ele>
        <time>2013-08-27T09:15:30Z</time>
      </trkpt>
      <trkpt lat="43.34549" lon="-0.54541">
        <ele>130.395996</ele>
        <time>2013-08-27T09:15:34Z</time>
      </trkpt>
      <trkpt lat="43.34581" lon="-0.54555">
        <ele>128.473389</ele>
        <time>2013-08-27T09:15:40Z</time>
      </trkpt>
      <trkpt lat="43.34603" lon="-0.54625">
        <ele>128.954102</ele>
        <time>2013-08-27T09:15:51Z</time>
      </trkpt>
      <trkpt lat="43.34611" lon="-0.54656">
        <ele>128.954102</ele>
        <time>2013-08-27T09:15:56Z</time>
      </trkpt>
      <trkpt lat="43.34644" lon="-0.54673">
        <ele>131.837891</ele>
        <time>2013-08-27T09:16:05Z</time>
      </trkpt>
      <trkpt lat="43.34647" lon="-0.54674">
        <ele>132.318604</ele>
        <time>2013-08-27T09:16:06Z</time>
      </trkpt>
      <trkpt lat="43.34661" lon="-0.54681">
        <ele>131.837891</ele>
        <time>2013-08-27T09:16:11Z</time>
      </trkpt>
      <trkpt lat="43.34675" lon="-0.54691">
        <ele>130.876709</ele>
        <time>2013-08-27T09:16:14Z</time>
      </trkpt>
      <trkpt lat="43.3473" lon="-0.54737">
        <ele>130.395996</ele>
        <time>2013-08-27T09:16:26Z</time>
      </trkpt>
      <trkpt lat="43.34781" lon="-0.54798">
        <ele>127.992554</ele>
        <time>2013-08-27T09:16:38Z</time>
      </trkpt>
      <trkpt lat="43.3481" lon="-0.54831">
        <ele>127.992554</ele>
        <time>2013-08-27T09:16:43Z</time>
      </trkpt>
      <trkpt lat="43.34841" lon="-0.54878">
        <ele>127.992554</ele>
        <time>2013-08-27T09:16:51Z</time>
      </trkpt>
      <trkpt lat="43.34864" lon="-0.54891">
        <ele>127.992554</ele>
        <time>2013-08-27T09:16:56Z</time>
      </trkpt>
      <trkpt lat="43.34934" lon="-0.54921">
        <ele>127.992554</ele>
        <time>2013-08-27T09:17:10Z</time>
      </trkpt>
      <trkpt lat="43.34942" lon="-0.54929">
        <ele>127.992554</ele>
        <time>2013-08-27T09:17:12Z</time>
      </trkpt>
      <trkpt lat="43.34962" lon="-0.54966">
        <ele>127.031372</ele>
        <time>2013-08-27T09:17:18Z</time>
      </trkpt>
      <trkpt lat="43.35011" lon="-0.5504">
        <ele>125.108765</ele>
        <time>2013-08-27T09:17:30Z</time>
      </trkpt>
      <trkpt lat="43.3504" lon="-0.55071">
        <ele>126.069946</ele>
        <time>2013-08-27T09:17:36Z</time>
      </trkpt>
      <trkpt lat="43.35111" lon="-0.5511">
        <ele>126.550659</ele>
        <time>2013-08-27T09:17:50Z</time>
      </trkpt>
      <trkpt lat="43.35135" lon="-0.55119">
        <ele>127.031372</ele>
        <time>2013-08-27T09:17:55Z</time>
      </trkpt>
      <trkpt lat="43.35154" lon="-0.55132">
        <ele>125.589355</ele>
        <time>2013-08-27T09:17:59Z</time>
      </trkpt>
      <trkpt lat="43.35169" lon="-0.5515">
        <ele>126.550659</ele>
        <time>2013-08-27T09:18:03Z</time>
      </trkpt>
      <trkpt lat="43.35198" lon="-0.55195">
        <ele>125.108765</ele>
        <time>2013-08-27T09:18:11Z</time>
      </trkpt>
      <trkpt lat="43.35206" lon="-0.55207">
        <ele>124.628052</ele>
        <time>2013-08-27T09:18:13Z</time>
      </trkpt>
      <trkpt lat="43.35217" lon="-0.55235">
        <ele>124.628052</ele>
        <time>2013-08-27T09:18:17Z</time>
      </trkpt>
      <trkpt lat="43.3522" lon="-0.55251">
        <ele>123.666748</ele>
        <time>2013-08-27T09:18:19Z</time>
      </trkpt>
      <trkpt lat="43.35223" lon="-0.55317">
        <ele>122.705444</ele>
        <time>2013-08-27T09:18:28Z</time>
      </trkpt>
      <trkpt lat="43.35228" lon="-0.55347">
        <ele>121.744141</ele>
        <time>2013-08-27T09:18:32Z</time>
      </trkpt>
      <trkpt lat="43.35208" lon="-0.55384">
        <ele>120.302124</ele>
        <time>2013-08-27T09:18:40Z</time>
      </trkpt>
      <trkpt lat="43.35197" lon="-0.55385">
        <ele>119.821411</ele>
        <time>2013-08-27T09:18:42Z</time>
      </trkpt>
      <trkpt lat="43.35176" lon="-0.55379">
        <ele>118.860107</ele>
        <time>2013-08-27T09:18:46Z</time>
      </trkpt>
      <trkpt lat="43.35093" lon="-0.55304">
        <ele>119.34082</ele>
        <time>2013-08-27T09:19:05Z</time>
      </trkpt>
      <trkpt lat="43.35068" lon="-0.55279">
        <ele>120.302124</ele>
        <time>2013-08-27T09:19:11Z</time>
      </trkpt>
      <trkpt lat="43.35046" lon="-0.55285">
        <ele>119.821411</ele>
        <time>2013-08-27T09:19:17Z</time>
      </trkpt>
      <trkpt lat="43.3502" lon="-0.55348">
        <ele>119.821411</ele>
        <time>2013-08-27T09:19:27Z</time>
      </trkpt>
      <trkpt lat="43.3498" lon="-0.55449">
        <ele>119.821411</ele>
        <time>2013-08-27T09:19:43Z</time>
      </trkpt>
      <trkpt lat="43.3498" lon="-0.55483">
        <ele>119.34082</ele>
        <time>2013-08-27T09:19:48Z</time>
      </trkpt>
      <trkpt lat="43.35001" lon="-0.5556">
        <ele>119.821411</ele>
        <time>2013-08-27T09:19:59Z</time>
      </trkpt>
      <trkpt lat="43.34996" lon="-0.556">
        <ele>119.821411</ele>
        <time>2013-08-27T09:20:05Z</time>
      </trkpt>
      <trkpt lat="43.34968" lon="-0.55642">
        <ele>119.34082</ele>
        <time>2013-08-27T09:20:13Z</time>
      </trkpt>
      <trkpt lat="43.34969" lon="-0.55674">
        <ele>119.34082</ele>
        <time>2013-08-27T09:20:18Z</time>
      </trkpt>
      <trkpt lat="43.35015" lon="-0.55811">
        <ele>118.860107</ele>
        <time>2013-08-27T09:20:38Z</time>
      </trkpt>
      <trkpt lat="43.35066" lon="-0.55961">
        <ele>119.34082</ele>
        <time>2013-08-27T09:20:59Z</time>
      </trkpt>
      <trkpt lat="43.35085" lon="-0.56018">
        <ele>119.34082</ele>
        <time>2013-08-27T09:21:07Z</time>
      </trkpt>
      <trkpt lat="43.35118" lon="-0.56123">
        <ele>118.379395</ele>
        <time>2013-08-27T09:21:24Z</time>
      </trkpt>
      <trkpt lat="43.3512" lon="-0.56216">
        <ele>118.860107</ele>
        <time>2013-08-27T09:21:39Z</time>
      </trkpt>
      <trkpt lat="43.35114" lon="-0.56379">
        <ele>119.34082</ele>
        <time>2013-08-27T09:22:01Z</time>
      </trkpt>
      <trkpt lat="43.35133" lon="-0.56422">
        <ele>119.34082</ele>
        <time>2013-08-27T09:22:10Z</time>
      </trkpt>
      <trkpt lat="43.35134" lon="-0.56427">
        <ele>119.34082</ele>
        <time>2013-08-27T09:22:11Z</time>
      </trkpt>
      <trkpt lat="43.35163" lon="-0.56459">
        <ele>118.860107</ele>
        <time>2013-08-27T09:22:22Z</time>
      </trkpt>
      <trkpt lat="43.35247" lon="-0.5648">
        <ele>119.34082</ele>
        <time>2013-08-27T09:22:38Z</time>
      </trkpt>
      <trkpt lat="43.35362" lon="-0.56477">
        <ele>118.379395</ele>
        <time>2013-08-27T09:22:56Z</time>
      </trkpt>
      <trkpt lat="43.35452" lon="-0.56483">
        <ele>118.379395</ele>
        <time>2013-08-27T09:23:12Z</time>
      </trkpt>
      <trkpt lat="43.3547" lon="-0.5652">
        <ele>117.898804</ele>
        <time>2013-08-27T09:23:20Z</time>
      </trkpt>
      <trkpt lat="43.35488" lon="-0.56619">
        <ele>117.418213</ele>
        <time>2013-08-27T09:23:39Z</time>
      </trkpt>
      <trkpt lat="43.35507" lon="-0.56666">
        <ele>117.418213</ele>
        <time>2013-08-27T09:23:49Z</time>
      </trkpt>
      <trkpt lat="43.35518" lon="-0.56766">
        <ele>118.379395</ele>
        <time>2013-08-27T09:24:07Z</time>
      </trkpt>
      <trkpt lat="43.35526" lon="-0.56851">
        <ele>117.898804</ele>
        <time>2013-08-27T09:24:22Z</time>
      </trkpt>
      <trkpt lat="43.35548" lon="-0.56856">
        <ele>117.898804</ele>
        <time>2013-08-27T09:24:29Z</time>
      </trkpt>
      <trkpt lat="43.35559" lon="-0.56851">
        <ele>117.418213</ele>
        <time>2013-08-27T09:24:32Z</time>
      </trkpt>
      <trkpt lat="43.3565" lon="-0.56788">
        <ele>117.418213</ele>
        <time>2013-08-27T09:24:54Z</time>
      </trkpt>
      <trkpt lat="43.35712" lon="-0.56743">
        <ele>117.418213</ele>
        <time>2013-08-27T09:25:11Z</time>
      </trkpt>
      <trkpt lat="43.35713" lon="-0.56779">
        <ele>117.898804</ele>
        <time>2013-08-27T09:25:19Z</time>
      </trkpt>
      <trkpt lat="43.35712" lon="-0.56785">
        <ele>118.379395</ele>
        <time>2013-08-27T09:25:20Z</time>
      </trkpt>
      <trkpt lat="43.35683" lon="-0.56918">
        <ele>117.898804</ele>
        <time>2013-08-27T09:25:40Z</time>
      </trkpt>
      <trkpt lat="43.35668" lon="-0.57039">
        <ele>117.898804</ele>
        <time>2013-08-27T09:25:57Z</time>
      </trkpt>
      <trkpt lat="43.35677" lon="-0.57141">
        <ele>118.379395</ele>
        <time>2013-08-27T09:26:11Z</time>
      </trkpt>
      <trkpt lat="43.35717" lon="-0.57266">
        <ele>117.898804</ele>
        <time>2013-08-27T09:26:28Z</time>
      </trkpt>
      <trkpt lat="43.35752" lon="-0.57373">
        <ele>116.9375</ele>
        <time>2013-08-27T09:26:42Z</time>
      </trkpt>
      <trkpt lat="43.35778" lon="-0.57474">
        <ele>116.9375</ele>
        <time>2013-08-27T09:26:57Z</time>
      </trkpt>
      <trkpt lat="43.35801" lon="-0.57537">
        <ele>115.976196</ele>
        <time>2013-08-27T09:27:08Z</time>
      </trkpt>
      <trkpt lat="43.35806" lon="-0.57561">
        <ele>115.495605</ele>
        <time>2013-08-27T09:27:12Z</time>
      </trkpt>
      <trkpt lat="43.35808" lon="-0.57605">
        <ele>116.456787</ele>
        <time>2013-08-27T09:27:22Z</time>
      </trkpt>
      <trkpt lat="43.35811" lon="-0.57609">
        <ele>116.456787</ele>
        <time>2013-08-27T09:27:25Z</time>
      </trkpt>
      <trkpt lat="43.35812" lon="-0.57615">
        <ele>117.898804</ele>
        <time>2013-08-27T09:27:27Z</time>
      </trkpt>
      <trkpt lat="43.35808" lon="-0.57632">
        <ele>118.379395</ele>
        <time>2013-08-27T09:27:31Z</time>
      </trkpt>
      <trkpt lat="43.35775" lon="-0.57749">
        <ele>117.418213</ele>
        <time>2013-08-27T09:27:48Z</time>
      </trkpt>
      <trkpt lat="43.3576" lon="-0.57796">
        <ele>117.418213</ele>
        <time>2013-08-27T09:27:55Z</time>
      </trkpt>
      <trkpt lat="43.35769" lon="-0.57822">
        <ele>116.456787</ele>
        <time>2013-08-27T09:28:00Z</time>
      </trkpt>
      <trkpt lat="43.35777" lon="-0.57833">
        <ele>116.456787</ele>
        <time>2013-08-27T09:28:02Z</time>
      </trkpt>
      <trkpt lat="43.35799" lon="-0.57844">
        <ele>115.976196</ele>
        <time>2013-08-27T09:28:07Z</time>
      </trkpt>
      <trkpt lat="43.35825" lon="-0.57842">
        <ele>115.976196</ele>
        <time>2013-08-27T09:28:12Z</time>
      </trkpt>
      <trkpt lat="43.35847" lon="-0.57868">
        <ele>116.456787</ele>
        <time>2013-08-27T09:28:18Z</time>
      </trkpt>
      <trkpt lat="43.35849" lon="-0.57888">
        <ele>115.976196</ele>
        <time>2013-08-27T09:28:21Z</time>
      </trkpt>
      <trkpt lat="43.35846" lon="-0.57913">
        <ele>115.976196</ele>
        <time>2013-08-27T09:28:25Z</time>
      </trkpt>
      <trkpt lat="43.3584" lon="-0.5794">
        <ele>115.976196</ele>
        <time>2013-08-27T09:28:29Z</time>
      </trkpt>
      <trkpt lat="43.35843" lon="-0.57979">
        <ele>115.976196</ele>
        <time>2013-08-27T09:28:35Z</time>
      </trkpt>
      <trkpt lat="43.35846" lon="-0.57992">
        <ele>115.495605</ele>
        <time>2013-08-27T09:28:37Z</time>
      </trkpt>
      <trkpt lat="43.3586" lon="-0.58021">
        <ele>115.495605</ele>
        <time>2013-08-27T09:28:42Z</time>
      </trkpt>
      <trkpt lat="43.35897" lon="-0.58071">
        <ele>115.495605</ele>
        <time>2013-08-27T09:28:53Z</time>
      </trkpt>
      <trkpt lat="43.35949" lon="-0.58162">
        <ele>115.976196</ele>
        <time>2013-08-27T09:29:10Z</time>
      </trkpt>
      <trkpt lat="43.35968" lon="-0.58214">
        <ele>116.456787</ele>
        <time>2013-08-27T09:29:22Z</time>
      </trkpt>
      <trkpt lat="43.35977" lon="-0.58245">
        <ele>115.495605</ele>
        <time>2013-08-27T09:29:28Z</time>
      </trkpt>
      <trkpt lat="43.3599" lon="-0.58264">
        <ele>115.495605</ele>
        <time>2013-08-27T09:29:32Z</time>
      </trkpt>
      <trkpt lat="43.3602" lon="-0.58347">
        <ele>115.495605</ele>
        <time>2013-08-27T09:29:45Z</time>
      </trkpt>
      <trkpt lat="43.36031" lon="-0.58375">
        <ele>116.456787</ele>
        <time>2013-08-27T09:29:49Z</time>
      </trkpt>
      <trkpt lat="43.36091" lon="-0.58498">
        <ele>115.976196</ele>
        <time>2013-08-27T09:30:08Z</time>
      </trkpt>
      <trkpt lat="43.36099" lon="-0.58509">
        <ele>115.014893</ele>
        <time>2013-08-27T09:30:10Z</time>
      </trkpt>
      <trkpt lat="43.36135" lon="-0.58521">
        <ele>115.014893</ele>
        <time>2013-08-27T09:30:17Z</time>
      </trkpt>
      <trkpt lat="43.3618" lon="-0.58504">
        <ele>114.53418</ele>
        <time>2013-08-27T09:30:25Z</time>
      </trkpt>
      <trkpt lat="43.36258" lon="-0.58524">
        <ele>114.053589</ele>
        <time>2013-08-27T09:30:39Z</time>
      </trkpt>
      <trkpt lat="43.3631" lon="-0.58611">
        <ele>114.53418</ele>
        <time>2013-08-27T09:30:53Z</time>
      </trkpt>
      <trkpt lat="43.36321" lon="-0.5866">
        <ele>114.053589</ele>
        <time>2013-08-27T09:30:59Z</time>
      </trkpt>
      <trkpt lat="43.36332" lon="-0.58689">
        <ele>114.053589</ele>
        <time>2013-08-27T09:31:03Z</time>
      </trkpt>
      <trkpt lat="43.3638" lon="-0.58823">
        <ele>113.572998</ele>
        <time>2013-08-27T09:31:21Z</time>
      </trkpt>
      <trkpt lat="43.36434" lon="-0.58917">
        <ele>112.611572</ele>
        <time>2013-08-27T09:31:36Z</time>
      </trkpt>
      <trkpt lat="43.36424" lon="-0.58956">
        <ele>112.611572</ele>
        <time>2013-08-27T09:31:43Z</time>
      </trkpt>
      <trkpt lat="43.363" lon="-0.59009">
        <ele>112.130981</ele>
        <time>2013-08-27T09:32:06Z</time>
      </trkpt>
      <trkpt lat="43.36218" lon="-0.59048">
        <ele>112.611572</ele>
        <time>2013-08-27T09:32:22Z</time>
      </trkpt>
      <trkpt lat="43.36125" lon="-0.59101">
        <ele>112.130981</ele>
        <time>2013-08-27T09:32:39Z</time>
      </trkpt>
      <trkpt lat="43.3606" lon="-0.59141">
        <ele>112.130981</ele>
        <time>2013-08-27T09:32:51Z</time>
      </trkpt>
      <trkpt lat="43.3604" lon="-0.59174">
        <ele>112.611572</ele>
        <time>2013-08-27T09:32:57Z</time>
      </trkpt>
      <trkpt lat="43.36012" lon="-0.59313">
        <ele>113.092285</ele>
        <time>2013-08-27T09:33:15Z</time>
      </trkpt>
      <trkpt lat="43.36004" lon="-0.59437">
        <ele>113.092285</ele>
        <time>2013-08-27T09:33:31Z</time>
      </trkpt>
      <trkpt lat="43.36005" lon="-0.59457">
        <ele>113.572998</ele>
        <time>2013-08-27T09:33:34Z</time>
      </trkpt>
      <trkpt lat="43.36006" lon="-0.59515">
        <ele>113.092285</ele>
        <time>2013-08-27T09:33:45Z</time>
      </trkpt>
      <trkpt lat="43.35981" lon="-0.5952">
        <ele>112.130981</ele>
        <time>2013-08-27T09:33:53Z</time>
      </trkpt>
      <trkpt lat="43.35945" lon="-0.5948">
        <ele>112.130981</ele>
        <time>2013-08-27T09:34:05Z</time>
      </trkpt>
      <trkpt lat="43.35933" lon="-0.5947">
        <ele>112.611572</ele>
        <time>2013-08-27T09:34:08Z</time>
      </trkpt>
      <trkpt lat="43.35891" lon="-0.59433">
        <ele>112.611572</ele>
        <time>2013-08-27T09:34:20Z</time>
      </trkpt>
      <trkpt lat="43.35883" lon="-0.59422">
        <ele>112.611572</ele>
        <time>2013-08-27T09:34:23Z</time>
      </trkpt>
      <trkpt lat="43.35876" lon="-0.59399">
        <ele>112.611572</ele>
        <time>2013-08-27T09:34:27Z</time>
      </trkpt>
      <trkpt lat="43.35874" lon="-0.59389">
        <ele>112.130981</ele>
        <time>2013-08-27T09:34:29Z</time>
      </trkpt>
      <trkpt lat="43.35836" lon="-0.59356">
        <ele>112.611572</ele>
        <time>2013-08-27T09:34:41Z</time>
      </trkpt>
      <trkpt lat="43.3581" lon="-0.59327">
        <ele>113.572998</ele>
        <time>2013-08-27T09:34:51Z</time>
      </trkpt>
      <trkpt lat="43.35814" lon="-0.59272">
        <ele>113.092285</ele>
        <time>2013-08-27T09:35:00Z</time>
      </trkpt>
      <trkpt lat="43.35813" lon="-0.59214">
        <ele>113.572998</ele>
        <time>2013-08-27T09:35:11Z</time>
      </trkpt>
      <trkpt lat="43.35813" lon="-0.59163">
        <ele>113.092285</ele>
        <time>2013-08-27T09:35:21Z</time>
      </trkpt>
      <trkpt lat="43.35807" lon="-0.5914">
        <ele>113.092285</ele>
        <time>2013-08-27T09:35:25Z</time>
      </trkpt>
      <trkpt lat="43.35801" lon="-0.59132">
        <ele>112.611572</ele>
        <time>2013-08-27T09:35:27Z</time>
      </trkpt>
      <trkpt lat="43.35785" lon="-0.59121">
        <ele>112.611572</ele>
        <time>2013-08-27T09:35:31Z</time>
      </trkpt>
      <trkpt lat="43.35765" lon="-0.59091">
        <ele>113.572998</ele>
        <time>2013-08-27T09:35:38Z</time>
      </trkpt>
      <trkpt lat="43.35755" lon="-0.59057">
        <ele>113.572998</ele>
        <time>2013-08-27T09:35:44Z</time>
      </trkpt>
      <trkpt lat="43.35752" lon="-0.59024">
        <ele>113.572998</ele>
        <time>2013-08-27T09:35:49Z</time>
      </trkpt>
      <trkpt lat="43.35741" lon="-0.58956">
        <ele>113.572998</ele>
        <time>2013-08-27T09:36:01Z</time>
      </trkpt>
      <trkpt lat="43.35709" lon="-0.58927">
        <ele>113.572998</ele>
        <time>2013-08-27T09:36:12Z</time>
      </trkpt>
      <trkpt lat="43.35658" lon="-0.58896">
        <ele>114.053589</ele>
        <time>2013-08-27T09:36:26Z</time>
      </trkpt>
      <trkpt lat="43.3562" lon="-0.58878">
        <ele>114.053589</ele>
        <time>2013-08-27T09:36:37Z</time>
      </trkpt>
      <trkpt lat="43.35602" lon="-0.58845">
        <ele>114.53418</ele>
        <time>2013-08-27T09:36:46Z</time>
      </trkpt>
      <trkpt lat="43.35588" lon="-0.58799">
        <ele>114.53418</ele>
        <time>2013-08-27T09:36:57Z</time>
      </trkpt>
      <trkpt lat="43.35583" lon="-0.5879">
        <ele>115.014893</ele>
        <time>2013-08-27T09:36:59Z</time>
      </trkpt>
      <trkpt lat="43.35581" lon="-0.58767">
        <ele>115.014893</ele>
        <time>2013-08-27T09:37:03Z</time>
      </trkpt>
      <trkpt lat="43.3558" lon="-0.58734">
        <ele>115.014893</ele>
        <time>2013-08-27T09:37:09Z</time>
      </trkpt>
      <trkpt lat="43.35578" lon="-0.58708">
        <ele>114.53418</ele>
        <time>2013-08-27T09:37:13Z</time>
      </trkpt>
      <trkpt lat="43.35571" lon="-0.58652">
        <ele>115.014893</ele>
        <time>2013-08-27T09:37:24Z</time>
      </trkpt>
      <trkpt lat="43.35562" lon="-0.58617">
        <ele>115.014893</ele>
        <time>2013-08-27T09:37:30Z</time>
      </trkpt>
      <trkpt lat="43.35558" lon="-0.58592">
        <ele>115.495605</ele>
        <time>2013-08-27T09:37:34Z</time>
      </trkpt>
      <trkpt lat="43.35555" lon="-0.58556">
        <ele>115.014893</ele>
        <time>2013-08-27T09:37:41Z</time>
      </trkpt>
      <trkpt lat="43.35565" lon="-0.58521">
        <ele>115.014893</ele>
        <time>2013-08-27T09:37:48Z</time>
      </trkpt>
      <trkpt lat="43.35577" lon="-0.58501">
        <ele>115.014893</ele>
        <time>2013-08-27T09:37:52Z</time>
      </trkpt>
      <trkpt lat="43.35589" lon="-0.58481">
        <ele>115.014893</ele>
        <time>2013-08-27T09:37:56Z</time>
      </trkpt>
      <trkpt lat="43.35596" lon="-0.58465">
        <ele>115.495605</ele>
        <time>2013-08-27T09:37:59Z</time>
      </trkpt>
      <trkpt lat="43.35602" lon="-0.58443">
        <ele>115.014893</ele>
        <time>2013-08-27T09:38:03Z</time>
      </trkpt>
      <trkpt lat="43.35605" lon="-0.58427">
        <ele>115.014893</ele>
        <time>2013-08-27T09:38:06Z</time>
      </trkpt>
      <trkpt lat="43.35608" lon="-0.58399">
        <ele>115.014893</ele>
        <time>2013-08-27T09:38:11Z</time>
      </trkpt>
      <trkpt lat="43.3561" lon="-0.58381">
        <ele>115.014893</ele>
        <time>2013-08-27T09:38:14Z</time>
      </trkpt>
      <trkpt lat="43.35613" lon="-0.58347">
        <ele>115.014893</ele>
        <time>2013-08-27T09:38:19Z</time>
      </trkpt>
      <trkpt lat="43.35619" lon="-0.58325">
        <ele>115.014893</ele>
        <time>2013-08-27T09:38:23Z</time>
      </trkpt>
      <trkpt lat="43.35633" lon="-0.58305">
        <ele>114.53418</ele>
        <time>2013-08-27T09:38:28Z</time>
      </trkpt>
      <trkpt lat="43.35661" lon="-0.58288">
        <ele>115.014893</ele>
        <time>2013-08-27T09:38:37Z</time>
      </trkpt>
      <trkpt lat="43.35659" lon="-0.58277">
        <ele>115.495605</ele>
        <time>2013-08-27T09:38:40Z</time>
      </trkpt>
      <trkpt lat="43.35657" lon="-0.58268">
        <ele>115.495605</ele>
        <time>2013-08-27T09:38:42Z</time>
      </trkpt>
      <trkpt lat="43.35651" lon="-0.58189">
        <ele>115.495605</ele>
        <time>2013-08-27T09:38:53Z</time>
      </trkpt>
      <trkpt lat="43.35679" lon="-0.5807">
        <ele>115.495605</ele>
        <time>2013-08-27T09:39:09Z</time>
      </trkpt>
      <trkpt lat="43.35732" lon="-0.57879">
        <ele>115.495605</ele>
        <time>2013-08-27T09:39:31Z</time>
      </trkpt>
      <trkpt lat="43.35776" lon="-0.57721">
        <ele>116.456787</ele>
        <time>2013-08-27T09:39:49Z</time>
      </trkpt>
      <trkpt lat="43.35807" lon="-0.57615">
        <ele>116.456787</ele>
        <time>2013-08-27T09:40:03Z</time>
      </trkpt>
      <trkpt lat="43.35805" lon="-0.5758">
        <ele>115.014893</ele>
        <time>2013-08-27T09:40:08Z</time>
      </trkpt>
      <trkpt lat="43.35804" lon="-0.57563">
        <ele>115.014893</ele>
        <time>2013-08-27T09:40:10Z</time>
      </trkpt>
      <trkpt lat="43.35791" lon="-0.57502">
        <ele>114.053589</ele>
        <time>2013-08-27T09:40:18Z</time>
      </trkpt>
      <trkpt lat="43.35773" lon="-0.57462">
        <ele>114.53418</ele>
        <time>2013-08-27T09:40:24Z</time>
      </trkpt>
      <trkpt lat="43.35746" lon="-0.5734">
        <ele>114.53418</ele>
        <time>2013-08-27T09:40:40Z</time>
      </trkpt>
      <trkpt lat="43.35714" lon="-0.57255">
        <ele>115.495605</ele>
        <time>2013-08-27T09:40:54Z</time>
      </trkpt>
      <trkpt lat="43.35679" lon="-0.57144">
        <ele>116.456787</ele>
        <time>2013-08-27T09:41:12Z</time>
      </trkpt>
      <trkpt lat="43.35667" lon="-0.57038">
        <ele>116.9375</ele>
        <time>2013-08-27T09:41:27Z</time>
      </trkpt>
      <trkpt lat="43.35685" lon="-0.56895">
        <ele>116.9375</ele>
        <time>2013-08-27T09:41:47Z</time>
      </trkpt>
      <trkpt lat="43.35707" lon="-0.5679">
        <ele>116.9375</ele>
        <time>2013-08-27T09:42:03Z</time>
      </trkpt>
      <trkpt lat="43.35722" lon="-0.5673">
        <ele>116.456787</ele>
        <time>2013-08-27T09:42:13Z</time>
      </trkpt>
      <trkpt lat="43.35721" lon="-0.56696">
        <ele>116.456787</ele>
        <time>2013-08-27T09:42:18Z</time>
      </trkpt>
      <trkpt lat="43.35701" lon="-0.56625">
        <ele>116.456787</ele>
        <time>2013-08-27T09:42:29Z</time>
      </trkpt>
      <trkpt lat="43.35693" lon="-0.56606">
        <ele>116.9375</ele>
        <time>2013-08-27T09:42:32Z</time>
      </trkpt>
      <trkpt lat="43.357" lon="-0.56557">
        <ele>116.9375</ele>
        <time>2013-08-27T09:42:40Z</time>
      </trkpt>
      <trkpt lat="43.35757" lon="-0.56525">
        <ele>117.418213</ele>
        <time>2013-08-27T09:42:52Z</time>
      </trkpt>
      <trkpt lat="43.35802" lon="-0.56507">
        <ele>116.9375</ele>
        <time>2013-08-27T09:43:02Z</time>
      </trkpt>
      <trkpt lat="43.35817" lon="-0.565">
        <ele>116.9375</ele>
        <time>2013-08-27T09:43:06Z</time>
      </trkpt>
      <trkpt lat="43.35818" lon="-0.56444">
        <ele>116.456787</ele>
        <time>2013-08-27T09:43:18Z</time>
      </trkpt>
      <trkpt lat="43.35813" lon="-0.56438">
        <ele>116.9375</ele>
        <time>2013-08-27T09:43:29Z</time>
      </trkpt>
      <trkpt lat="43.35812" lon="-0.56439">
        <ele>116.9375</ele>
        <time>2013-08-27T09:43:44Z</time>
      </trkpt>
      <trkpt lat="43.35811" lon="-0.56445">
        <ele>117.418213</ele>
        <time>2013-08-27T09:43:58Z</time>
      </trkpt>
      <trkpt lat="43.35811" lon="-0.56445">
        <ele>115.495605</ele>
        <time>2013-08-27T09:44:02Z</time>
      </trkpt>
      <trkpt lat="43.35811" lon="-0.56446">
        <ele>116.9375</ele>
        <time>2013-08-27T09:44:05Z</time>
      </trkpt>
      <trkpt lat="43.35812" lon="-0.56444">
        <ele>116.456787</ele>
        <time>2013-08-27T09:44:07Z</time>
      </trkpt>
      <trkpt lat="43.35812" lon="-0.56445">
        <ele>117.418213</ele>
        <time>2013-08-27T09:44:09Z</time>
      </trkpt>
    </trkseg>
  </trk>
</gpx>